Webcam & Weather

This webcam image will automatically refresh every 15 seconds.


METAR and TAF for EGLL Heathrow (12 Nautical Miles East of White Waltham)

Available data for EGLL from the past hour
LONDON/HEATHROW
Metar
EGLL 202320Z AUTO 21006KT 9999 NCD 07/05 Q1022 NOSIG

23:20 UTC

Wind: 210° 6kt

Visibility: 9999 m

Sky:

Temp: 7 deg C / 44.6 deg F

Dewpoint: 5 deg C / 41 deg F

Pressure: 1022 hPa

TAF
TAF EGLL 201657Z 2018/2124 21008KT 9999 FEW040 PROB30 TEMPO 2020/2105 9000 TEMPO 2103/2117 BKN012 PROB40 TEMPO 2105/2110 7000 BKN006 TEMPO 2122/2124 5000 BR BKN004

Play 24 hour timelapse | Play 30 day timelapse

Comments are closed.